sensor_id;sensor_type;location;lat;lon;timestamp;pressure;altitude;pressure_sealevel;temperature;humidity
66385;BME280;53426;55.872;37.462;2023-03-18T00:02:04;100892.91;;;-1.61;43.86
66385;BME280;53426;55.872;37.462;2023-03-18T00:04:29;100879.22;;;-1.71;44.08
66385;BME280;53426;55.872;37.462;2023-03-18T00:06:56;100876.63;;;-1.72;44.21
66385;BME280;53426;55.872;37.462;2023-03-18T00:09:22;100893.84;;;-1.66;44.13
66385;BME280;53426;55.872;37.462;2023-03-18T00:11:48;100882.66;;;-1.70;43.81
66385;BME280;53426;55.872;37.462;2023-03-18T00:14:14;100888.59;;;-1.63;44.02
66385;BME280;53426;55.872;37.462;2023-03-18T00:16:41;100894.66;;;-1.63;44.28
66385;BME280;53426;55.872;37.462;2023-03-18T00:19:08;100891.31;;;-1.70;44.27
66385;BME280;53426;55.872;37.462;2023-03-18T00:21:34;100896.53;;;-1.73;43.99
66385;BME280;53426;55.872;37.462;2023-03-18T00:24:00;100891.34;;;-1.73;44.67
66385;BME280;53426;55.872;37.462;2023-03-18T00:26:27;100897.38;;;-1.72;44.66
66385;BME280;53426;55.872;37.462;2023-03-18T00:28:57;100887.09;;;-1.80;44.46
66385;BME280;53426;55.872;37.462;2023-03-18T00:31:25;100913.84;;;-1.73;44.66
66385;BME280;53426;55.872;37.462;2023-03-18T00:33:52;100895.72;;;-1.78;44.66
66385;BME280;53426;55.872;37.462;2023-03-18T00:36:18;100900.91;;;-1.75;44.76
66385;BME280;53426;55.872;37.462;2023-03-18T00:38:51;100905.19;;;-1.72;44.69
66385;BME280;53426;55.872;37.462;2023-03-18T00:41:26;100902.66;;;-1.77;44.70
66385;BME280;53426;55.872;37.462;2023-03-18T00:43:52;100888.03;;;-1.85;44.76
66385;BME280;53426;55.872;37.462;2023-03-18T00:46:24;100908.69;;;-1.76;44.62
66385;BME280;53426;55.872;37.462;2023-03-18T00:48:52;100901.78;;;-1.77;44.97
66385;BME280;53426;55.872;37.462;2023-03-18T00:51:19;100891.53;;;-1.89;45.09
66385;BME280;53426;55.872;37.462;2023-03-18T00:53:50;100902.75;;;-1.86;45.04
66385;BME280;53426;55.872;37.462;2023-03-18T00:56:19;100912.22;;;-1.82;45.31
66385;BME280;53426;55.872;37.462;2023-03-18T00:58:47;100909.63;;;-1.80;45.27
66385;BME280;53426;55.872;37.462;2023-03-18T01:01:14;100903.72;;;-1.94;45.72
66385;BME280;53426;55.872;37.462;2023-03-18T01:03:41;100920.09;;;-1.88;45.61
66385;BME280;53426;55.872;37.462;2023-03-18T01:06:11;100919.16;;;-1.85;45.67
66385;BME280;53426;55.872;37.462;2023-03-18T01:08:39;100895.97;;;-1.97;45.97
66385;BME280;53426;55.872;37.462;2023-03-18T01:11:08;100922.63;;;-1.85;45.54
66385;BME280;53426;55.872;37.462;2023-03-18T01:13:35;100922.66;;;-1.86;45.63
66385;BME280;53426;55.872;37.462;2023-03-18T01:16:03;100914.97;;;-1.94;46.07
66385;BME280;53426;55.872;37.462;2023-03-18T01:18:30;100913.22;;;-1.92;46.33
66385;BME280;53426;55.872;37.462;2023-03-18T01:20:56;100929.66;;;-1.91;46.27
66385;BME280;53426;55.872;37.462;2023-03-18T01:23:25;100924.41;;;-1.90;46.18
66385;BME280;53426;55.872;37.462;2023-03-18T01:25:51;100922.72;;;-1.92;46.39
66385;BME280;53426;55.872;37.462;2023-03-18T01:28:19;100932.25;;;-1.91;46.57
66385;BME280;53426;55.872;37.462;2023-03-18T01:30:46;100932.25;;;-1.91;46.30
66385;BME280;53426;55.872;37.462;2023-03-18T01:33:15;100921.97;;;-2.02;46.51
66385;BME280;53426;55.872;37.462;2023-03-18T01:35:42;100938.31;;;-1.95;46.72
66385;BME280;53426;55.872;37.462;2023-03-18T01:38:08;100944.38;;;-1.95;47.02
66385;BME280;53426;55.872;37.462;2023-03-18T01:40:36;100948.69;;;-1.95;46.57
66385;BME280;53426;55.872;37.462;2023-03-18T01:43:14;100945.25;;;-1.96;47.24
66385;BME280;53426;55.872;37.462;2023-03-18T01:45:51;100943.56;;;-1.97;47.20
66385;BME280;53426;55.872;37.462;2023-03-18T01:48:21;100954.81;;;-1.98;46.77
66385;BME280;53426;55.872;37.462;2023-03-18T01:50:54;100963.47;;;-1.99;47.05
66385;BME280;53426;55.872;37.462;2023-03-18T01:53:22;100953.97;;;-2.01;46.94
66385;BME280;53426;55.872;37.462;2023-03-18T01:55:49;100964.34;;;-2.01;47.10
66385;BME280;53426;55.872;37.462;2023-03-18T01:58:30;100966.97;;;-2.04;46.91
66385;BME280;53426;55.872;37.462;2023-03-18T02:01:31;100966.16;;;-2.09;46.80
66385;BME280;53426;55.872;37.462;2023-03-18T02:04:05;100969.63;;;-2.11;46.98
66385;BME280;53426;55.872;37.462;2023-03-18T02:06:32;100969.63;;;-2.09;47.53
66385;BME280;53426;55.872;37.462;2023-03-18T02:09:00;100966.16;;;-2.09;47.08
66385;BME280;53426;55.872;37.462;2023-03-18T02:11:30;100962.72;;;-2.12;47.11
66385;BME280;53426;55.872;37.462;2023-03-18T02:13:59;100977.41;;;-2.11;47.12
66385;BME280;53426;55.872;37.462;2023-03-18T02:16:34;100983.47;;;-2.08;47.44
66385;BME280;53426;55.872;37.462;2023-03-18T02:19:25;100982.59;;;-2.09;47.16
66385;BME280;53426;55.872;37.462;2023-03-18T02:22:26;100987.78;;;-2.12;47.41
66385;BME280;53426;55.872;37.462;2023-03-18T02:27:32;100989.53;;;-2.13;46.64
66385;BME280;53426;55.872;37.462;2023-03-18T02:30:06;100991.34;;;-2.21;47.70
66385;BME280;53426;55.872;37.462;2023-03-18T02:32:36;100999.97;;;-2.17;47.79
66385;BME280;53426;55.872;37.462;2023-03-18T02:35:04;101000.00;;;-2.22;48.16
66385;BME280;53426;55.872;37.462;2023-03-18T02:37:34;100976.78;;;-2.37;48.15
66385;BME280;53426;55.872;37.462;2023-03-18T02:40:12;100993.94;;;-2.21;48.11
66385;BME280;53426;55.872;37.462;2023-03-18T02:42:39;100993.13;;;-2.29;48.24
66385;BME280;53426;55.872;37.462;2023-03-18T02:48:15;100994.91;;;-2.32;48.38
66385;BME280;53426;55.872;37.462;2023-03-18T02:50:42;101008.75;;;-2.30;48.18
66385;BME280;53426;55.872;37.462;2023-03-18T02:53:11;101014.75;;;-2.24;48.50
66385;BME280;53426;55.872;37.462;2023-03-18T02:55:37;101004.38;;;-2.27;48.56
66385;BME280;53426;55.872;37.462;2023-03-18T02:58:03;100975.16;;;-2.47;48.57
66385;BME280;53426;55.872;37.462;2023-03-18T03:00:29;101018.19;;;-2.25;48.34
66385;BME280;53426;55.872;37.462;2023-03-18T03:02:56;101002.69;;;-2.34;48.45
66385;BME280;53426;55.872;37.462;2023-03-18T03:05:22;101012.19;;;-2.30;48.50
66385;BME280;53426;55.872;37.462;2023-03-18T03:07:48;101025.16;;;-2.30;48.64
66385;BME280;53426;55.872;37.462;2023-03-18T03:10:14;101013.94;;;-2.30;48.65
66385;BME280;53426;55.872;37.462;2023-03-18T03:12:42;101023.41;;;-2.28;48.50
66385;BME280;53426;55.872;37.462;2023-03-18T03:15:10;101003.59;;;-2.36;48.23
66385;BME280;53426;55.872;37.462;2023-03-18T03:17:42;101006.19;;;-2.36;48.67
66385;BME280;53426;55.872;37.462;2023-03-18T03:20:08;101019.94;;;-2.27;48.36
66385;BME280;53426;55.872;37.462;2023-03-18T03:22:34;101030.25;;;-2.21;48.24
66385;BME280;53426;55.872;37.462;2023-03-18T03:25:01;101022.53;;;-2.25;48.48
66385;BME280;53426;55.872;37.462;2023-03-18T03:27:29;101031.97;;;-2.18;48.44
66385;BME280;53426;55.872;37.462;2023-03-18T03:29:55;101005.31;;;-2.35;48.11
66385;BME280;53426;55.872;37.462;2023-03-18T03:32:21;101019.13;;;-2.30;48.67
66385;BME280;53426;55.872;37.462;2023-03-18T03:34:48;101038.06;;;-2.22;48.88
66385;BME280;53426;55.872;37.462;2023-03-18T03:37:15;101038.91;;;-2.22;48.90
66385;BME280;53426;55.872;37.462;2023-03-18T03:39:46;101011.38;;;-2.36;48.24
66385;BME280;53426;55.872;37.462;2023-03-18T03:42:13;101036.31;;;-2.22;48.80
66385;BME280;53426;55.872;37.462;2023-03-18T03:44:42;101018.25;;;-2.34;48.91
66385;BME280;53426;55.872;37.462;2023-03-18T03:47:08;101032.91;;;-2.27;49.06
66385;BME280;53426;55.872;37.462;2023-03-18T03:49:34;101034.63;;;-2.27;48.94
66385;BME280;53426;55.872;37.462;2023-03-18T03:52:00;101048.47;;;-2.27;49.67
66385;BME280;53426;55.872;37.462;2023-03-18T03:54:27;101031.22;;;-2.32;49.38
66385;BME280;53426;55.872;37.462;2023-03-18T03:56:53;101030.34;;;-2.33;49.45
66385;BME280;53426;55.872;37.462;2023-03-18T03:59:19;101043.34;;;-2.34;49.62
66385;BME280;53426;55.872;37.462;2023-03-18T04:02:05;101029.50;;;-2.30;49.72
66385;BME280;53426;55.872;37.462;2023-03-18T04:04:30;101046.69;;;-2.19;49.72
66385;BME280;53426;55.872;37.462;2023-03-18T04:06:57;101040.59;;;-2.18;49.65
66385;BME280;53426;55.872;37.462;2023-03-18T04:09:23;101050.06;;;-2.12;49.42
66385;BME280;53426;55.872;37.462;2023-03-18T04:11:49;101008.78;;;-2.35;49.68
66385;BME280;53426;55.872;37.462;2023-03-18T04:14:20;101044.00;;;-2.09;49.85
66385;BME280;53426;55.872;37.462;2023-03-18T04:16:46;101051.75;;;-2.06;49.92
66385;BME280;53426;55.872;37.462;2023-03-18T04:19:13;101044.88;;;-2.09;50.19
66385;BME280;53426;55.872;37.462;2023-03-18T04:21:40;101013.78;;;-2.18;50.09
66385;BME280;53426;55.872;37.462;2023-03-18T04:24:06;101035.34;;;-2.08;50.15
66385;BME280;53426;55.872;37.462;2023-03-18T04:26:32;101056.00;;;-1.96;50.30
66385;BME280;53426;55.872;37.462;2023-03-18T04:29:00;101062.03;;;-1.91;50.30
66385;BME280;53426;55.872;37.462;2023-03-18T04:31:26;101063.66;;;-1.84;50.18
66385;BME280;53426;55.872;37.462;2023-03-18T04:33:53;101056.69;;;-1.79;49.85
66385;BME280;53426;55.872;37.462;2023-03-18T04:36:20;101066.19;;;-1.75;50.13
66385;BME280;53426;55.872;37.462;2023-03-18T04:38:46;101047.16;;;-1.77;50.06
66385;BME280;53426;55.872;37.462;2023-03-18T04:41:13;101063.56;;;-1.72;50.15
66385;BME280;53426;55.872;37.462;2023-03-18T04:43:39;101067.84;;;-1.65;49.96
66385;BME280;53426;55.872;37.462;2023-03-18T04:46:07;101029.00;;;-1.77;49.63
66385;BME280;53426;55.872;37.462;2023-03-18T04:48:34;101061.72;;;-1.61;49.73
66385;BME280;53426;55.872;37.462;2023-03-18T04:51:03;101077.28;;;-0.86;48.35
66385;BME280;53426;55.872;37.462;2023-03-18T04:53:30;101074.53;;;0.36;45.64
66385;BME280;53426;55.872;37.462;2023-03-18T04:55:56;101073.59;;;0.85;44.10
66385;BME280;53426;55.872;37.462;2023-03-18T04:58:32;101074.50;;;1.64;42.96
66385;BME280;53426;55.872;37.462;2023-03-18T05:01:10;101067.63;;;2.31;40.43
66385;BME280;53426;55.872;37.462;2023-03-18T05:03:39;101073.38;;;2.77;39.84
66385;BME280;53426;55.872;37.462;2023-03-18T05:06:06;101055.66;;;3.44;38.86
66385;BME280;53426;55.872;37.462;2023-03-18T05:08:49;101044.34;;;4.24;36.69
66385;BME280;53426;55.872;37.462;2023-03-18T05:11:17;101018.13;;;4.49;35.71
66385;BME280;53426;55.872;37.462;2023-03-18T05:13:44;101044.47;;;4.46;35.69
66385;BME280;53426;55.872;37.462;2023-03-18T05:16:12;101040.38;;;4.12;36.82
66385;BME280;53426;55.872;37.462;2023-03-18T05:18:39;101072.38;;;5.20;34.58
66385;BME280;53426;55.872;37.462;2023-03-18T05:21:07;101078.94;;;5.76;33.28
66385;BME280;53426;55.872;37.462;2023-03-18T05:23:36;101066.22;;;5.66;33.56
66385;BME280;53426;55.872;37.462;2023-03-18T05:26:04;101070.84;;;6.45;32.53
66385;BME280;53426;55.872;37.462;2023-03-18T05:28:31;101073.53;;;6.84;31.67
66385;BME280;53426;55.872;37.462;2023-03-18T05:31:37;101087.69;;;6.61;32.90
66385;BME280;53426;55.872;37.462;2023-03-18T05:34:03;101068.16;;;6.87;31.71
66385;BME280;53426;55.872;37.462;2023-03-18T05:36:33;101065.13;;;7.52;30.99
66385;BME280;53426;55.872;37.462;2023-03-18T05:39:04;101085.38;;;7.51;30.38
66385;BME280;53426;55.872;37.462;2023-03-18T05:41:30;101095.84;;;6.95;30.44
66385;BME280;53426;55.872;37.462;2023-03-18T05:43:56;101084.59;;;7.31;29.60
66385;BME280;53426;55.872;37.462;2023-03-18T05:46:23;101064.09;;;6.98;30.53
66385;BME280;53426;55.872;37.462;2023-03-18T05:49:20;101098.69;;;6.91;30.55
66385;BME280;53426;55.872;37.462;2023-03-18T05:52:00;101102.22;;;6.90;29.85
66385;BME280;53426;55.872;37.462;2023-03-18T05:54:36;101092.97;;;7.39;29.59
66385;BME280;53426;55.872;37.462;2023-03-18T05:57:03;101095.34;;;7.64;29.20
66385;BME280;53426;55.872;37.462;2023-03-18T05:59:29;101098.31;;;8.11;29.04
66385;BME280;53426;55.872;37.462;2023-03-18T06:01:58;101085.06;;;8.81;28.27
66385;BME280;53426;55.872;37.462;2023-03-18T06:04:24;101084.19;;;9.31;27.28
66385;BME280;53426;55.872;37.462;2023-03-18T06:06:52;101083.84;;;9.21;26.91
66385;BME280;53426;55.872;37.462;2023-03-18T06:09:21;101098.47;;;9.75;26.60
66385;BME280;53426;55.872;37.462;2023-03-18T06:11:50;101089.09;;;10.15;26.72
66385;BME280;53426;55.872;37.462;2023-03-18T06:14:17;101095.47;;;9.97;25.89
66385;BME280;53426;55.872;37.462;2023-03-18T06:16:44;101085.91;;;9.63;26.51
66385;BME280;53426;55.872;37.462;2023-03-18T06:19:11;101086.22;;;10.04;26.45
66385;BME280;53426;55.872;37.462;2023-03-18T06:21:38;101097.81;;;11.62;24.44
66385;BME280;53426;55.872;37.462;2023-03-18T06:24:06;101072.16;;;11.77;24.05
66385;BME280;53426;55.872;37.462;2023-03-18T06:26:33;101100.50;;;11.76;24.18
66385;BME280;53426;55.872;37.462;2023-03-18T06:29:01;101106.06;;;11.71;24.52
66385;BME280;53426;55.872;37.462;2023-03-18T06:31:29;101092.25;;;11.81;23.30
66385;BME280;53426;55.872;37.462;2023-03-18T06:33:58;101095.97;;;11.50;24.36
66385;BME280;53426;55.872;37.462;2023-03-18T06:36:25;101093.66;;;11.58;24.19
66385;BME280;53426;55.872;37.462;2023-03-18T06:38:52;101105.41;;;10.97;24.61
66385;BME280;53426;55.872;37.462;2023-03-18T06:41:20;101078.41;;;10.32;24.78
66385;BME280;53426;55.872;37.462;2023-03-18T06:44:00;101102.78;;;10.83;24.32
66385;BME280;53426;55.872;37.462;2023-03-18T06:46:28;101107.97;;;12.37;23.01
66385;BME280;53426;55.872;37.462;2023-03-18T06:48:55;101102.66;;;13.02;22.15
66385;BME280;53426;55.872;37.462;2023-03-18T06:51:32;101091.09;;;14.36;21.18
66385;BME280;53426;55.872;37.462;2023-03-18T06:54:07;101111.94;;;15.12;19.98
66385;BME280;53426;55.872;37.462;2023-03-18T06:56:35;101109.03;;;12.87;22.13
66385;BME280;53426;55.872;37.462;2023-03-18T06:59:15;101089.69;;;12.45;22.09
66385;BME280;53426;55.872;37.462;2023-03-18T07:01:41;101109.53;;;13.05;21.55
66385;BME280;53426;55.872;37.462;2023-03-18T07:04:08;101122.91;;;13.79;21.16
66385;BME280;53426;55.872;37.462;2023-03-18T07:06:45;101095.28;;;14.16;19.83
66385;BME280;53426;55.872;37.462;2023-03-18T07:09:11;101128.25;;;14.85;19.10
66385;BME280;53426;55.872;37.462;2023-03-18T07:11:43;101046.91;;;14.69;19.43
66385;BME280;53426;55.872;37.462;2023-03-18T07:17:57;101075.56;;;15.22;18.59
66385;BME280;53426;55.872;37.462;2023-03-18T07:20:25;101094.00;;;15.81;18.36
66385;BME280;53426;55.872;37.462;2023-03-18T07:22:55;101112.09;;;16.20;18.08
66385;BME280;53426;55.872;37.462;2023-03-18T07:25:48;100969.22;;;15.72;17.17
66385;BME280;53426;55.872;37.462;2023-03-18T07:28:20;101085.41;;;16.73;17.74
66385;BME280;53426;55.872;37.462;2023-03-18T07:35:14;101078.91;;;16.55;17.40
66385;BME280;53426;55.872;37.462;2023-03-18T07:37:42;101030.88;;;16.12;16.33
66385;BME280;53426;55.872;37.462;2023-03-18T07:40:10;101088.69;;;15.59;16.81
66385;BME280;53426;55.872;37.462;2023-03-18T07:42:54;101105.56;;;15.70;17.27
66385;BME280;53426;55.872;37.462;2023-03-18T07:49:33;101056.88;;;16.10;16.42
66385;BME280;53426;55.872;37.462;2023-03-18T07:51:59;101051.31;;;16.33;15.17
66385;BME280;53426;55.872;37.462;2023-03-18T07:54:46;101098.81;;;17.03;16.58
66385;BME280;53426;55.872;37.462;2023-03-18T07:57:34;101117.56;;;17.94;15.37
66385;BME280;53426;55.872;37.462;2023-03-18T08:00:06;101081.28;;;17.90;15.34
66385;BME280;53426;55.872;37.462;2023-03-18T08:05:41;100968.41;;;17.55;15.38
66385;BME280;53426;55.872;37.462;2023-03-18T08:08:16;101033.50;;;19.00;14.63
66385;BME280;53426;55.872;37.462;2023-03-18T08:10:46;101033.63;;;20.25;13.95
66385;BME280;53426;55.872;37.462;2023-03-18T08:13:13;101000.56;;;19.07;13.88
66385;BME280;53426;55.872;37.462;2023-03-18T08:15:39;101072.56;;;18.08;13.84
66385;BME280;53426;55.872;37.462;2023-03-18T08:18:05;101028.31;;;17.54;14.44
66385;BME280;53426;55.872;37.462;2023-03-18T08:20:33;101110.19;;;17.77;14.22
66385;BME280;53426;55.872;37.462;2023-03-18T08:36:00;101069.19;;;19.84;13.01
66385;BME280;53426;55.872;37.462;2023-03-18T08:38:39;101097.28;;;20.70;12.53
66385;BME280;53426;55.872;37.462;2023-03-18T08:41:09;101071.22;;;20.35;12.07
66385;BME280;53426;55.872;37.462;2023-03-18T08:56:47;101047.50;;;19.03;11.67
66385;BME280;53426;55.872;37.462;2023-03-18T09:02:12;101083.97;;;17.50;13.82
66385;BME280;53426;55.872;37.462;2023-03-18T09:08:59;100940.81;;;16.23;12.01
66385;BME280;53426;55.872;37.462;2023-03-18T09:11:33;101014.06;;;15.35;11.94
66385;BME280;53426;55.872;37.462;2023-03-18T09:23:36;101008.84;;;17.52;10.50
66385;BME280;53426;55.872;37.462;2023-03-18T09:39:08;100983.31;;;18.73;10.53
66385;BME280;53426;55.872;37.462;2023-03-18T09:58:01;101030.81;;;19.64;9.65
66385;BME280;53426;55.872;37.462;2023-03-18T10:00:41;100954.41;;;17.32;10.59
66385;BME280;53426;55.872;37.462;2023-03-18T10:06:23;100941.31;;;18.35;11.45
66385;BME280;53426;55.872;37.462;2023-03-18T10:09:00;101024.03;;;18.59;10.45
66385;BME280;53426;55.872;37.462;2023-03-18T10:11:42;101027.53;;;18.40;10.28
66385;BME280;53426;55.872;37.462;2023-03-18T10:19:32;101017.09;;;18.56;9.54
66385;BME280;53426;55.872;37.462;2023-03-18T10:24:38;101022.91;;;19.08;11.54
66385;BME280;53426;55.872;37.462;2023-03-18T10:27:48;100999.22;;;18.09;10.22
66385;BME280;53426;55.872;37.462;2023-03-18T10:33:30;100957.88;;;18.77;10.69
66385;BME280;53426;55.872;37.462;2023-03-18T10:38:53;100946.06;;;18.60;10.65
66385;BME280;53426;55.872;37.462;2023-03-18T10:41:33;100991.75;;;19.52;10.05
66385;BME280;53426;55.872;37.462;2023-03-18T10:44:36;100961.25;;;20.14;9.57
66385;BME280;53426;55.872;37.462;2023-03-18T10:47:31;100986.63;;;19.94;10.84
66385;BME280;53426;55.872;37.462;2023-03-18T10:55:16;100989.91;;;19.25;10.02
66385;BME280;53426;55.872;37.462;2023-03-18T10:57:43;100976.66;;;19.14;10.04
66385;BME280;53426;55.872;37.462;2023-03-18T11:02:51;100969.19;;;19.35;10.02
66385;BME280;53426;55.872;37.462;2023-03-18T11:05:34;100984.47;;;19.35;10.89
66385;BME280;53426;55.872;37.462;2023-03-18T11:08:04;100981.84;;;18.32;10.50
66385;BME280;53426;55.872;37.462;2023-03-18T11:10:43;100987.38;;;16.42;12.08
66385;BME280;53426;55.872;37.462;2023-03-18T11:13:15;100975.28;;;16.06;12.22
66385;BME280;53426;55.872;37.462;2023-03-18T11:15:51;100980.06;;;16.23;12.22
66385;BME280;53426;55.872;37.462;2023-03-18T11:18:22;100970.03;;;16.36;11.67
66385;BME280;53426;55.872;37.462;2023-03-18T11:20:56;100967.84;;;15.34;12.93
66385;BME280;53426;55.872;37.462;2023-03-18T11:26:24;100972.94;;;15.92;12.87
66385;BME280;53426;55.872;37.462;2023-03-18T11:29:03;100952.28;;;15.39;13.26
66385;BME280;53426;55.872;37.462;2023-03-18T11:31:29;100968.41;;;13.92;13.61
66385;BME280;53426;55.872;37.462;2023-03-18T11:33:57;100966.78;;;13.54;13.89
66385;BME280;53426;55.872;37.462;2023-03-18T11:36:26;100957.81;;;12.82;14.32
66385;BME280;53426;55.872;37.462;2023-03-18T11:39:03;100971.63;;;11.58;16.05
66385;BME280;53426;55.872;37.462;2023-03-18T11:41:30;100955.41;;;10.38;16.93
66385;BME280;53426;55.872;37.462;2023-03-18T11:44:01;100943.72;;;9.98;17.89
66385;BME280;53426;55.872;37.462;2023-03-18T11:46:42;100971.63;;;9.58;18.05
66385;BME280;53426;55.872;37.462;2023-03-18T11:49:15;100946.53;;;8.71;18.95
66385;BME280;53426;55.872;37.462;2023-03-18T11:54:58;100963.22;;;7.87;19.53
66385;BME280;53426;55.872;37.462;2023-03-18T12:00:31;100973.41;;;7.58;19.55
66385;BME280;53426;55.872;37.462;2023-03-18T12:06:21;100962.19;;;7.00;20.62
66385;BME280;53426;55.872;37.462;2023-03-18T12:11:30;100954.00;;;6.69;21.14
66385;BME280;53426;55.872;37.462;2023-03-18T12:14:23;100944.16;;;6.72;21.29
66385;BME280;53426;55.872;37.462;2023-03-18T12:20:44;100946.97;;;7.07;20.97
66385;BME280;53426;55.872;37.462;2023-03-18T12:26:35;100936.00;;;6.97;20.86
66385;BME280;53426;55.872;37.462;2023-03-18T12:29:31;100939.69;;;6.93;21.33
66385;BME280;53426;55.872;37.462;2023-03-18T12:41:48;100891.19;;;6.04;22.25
66385;BME280;53426;55.872;37.462;2023-03-18T12:47:19;100860.84;;;6.15;21.56
66385;BME280;53426;55.872;37.462;2023-03-18T12:49:52;100906.59;;;6.50;21.63
66385;BME280;53426;55.872;37.462;2023-03-18T12:52:28;100917.22;;;6.28;22.11
66385;BME280;53426;55.872;37.462;2023-03-18T13:00:29;100892.28;;;5.78;21.92
66385;BME280;53426;55.872;37.462;2023-03-18T13:14:29;100903.75;;;5.75;21.94
66385;BME280;53426;55.872;37.462;2023-03-18T13:17:16;100888.50;;;5.63;21.84
66385;BME280;53426;55.872;37.462;2023-03-18T13:19:46;100906.34;;;5.77;22.09
66385;BME280;53426;55.872;37.462;2023-03-18T13:31:04;100878.78;;;5.65;21.70
66385;BME280;53426;55.872;37.462;2023-03-18T13:42:38;100833.69;;;5.14;22.34
66385;BME280;53426;55.872;37.462;2023-03-18T13:48:16;100879.25;;;5.55;21.98
66385;BME280;53426;55.872;37.462;2023-03-18T13:50:46;100844.16;;;5.35;22.09
66385;BME280;53426;55.872;37.462;2023-03-18T13:53:33;100868.59;;;5.58;22.22
66385;BME280;53426;55.872;37.462;2023-03-18T13:56:06;100890.94;;;5.47;21.85
66385;BME280;53426;55.872;37.462;2023-03-18T13:58:50;100879.28;;;5.33;22.33
66385;BME280;53426;55.872;37.462;2023-03-18T14:01:29;100876.19;;;5.23;21.94
66385;BME280;53426;55.872;37.462;2023-03-18T14:04:30;100861.59;;;5.16;22.57
66385;BME280;53426;55.872;37.462;2023-03-18T14:07:17;100856.44;;;5.13;22.90
66385;BME280;53426;55.872;37.462;2023-03-18T14:15:02;100853.31;;;5.05;22.09
66385;BME280;53426;55.872;37.462;2023-03-18T14:20:19;100848.75;;;5.09;22.83
66385;BME280;53426;55.872;37.462;2023-03-18T14:22:51;100848.91;;;5.05;23.36
66385;BME280;53426;55.872;37.462;2023-03-18T14:25:18;100847.75;;;5.13;23.07
66385;BME280;53426;55.872;37.462;2023-03-18T14:27:53;100848.09;;;5.03;22.78
66385;BME280;53426;55.872;37.462;2023-03-18T14:30:43;100831.88;;;4.94;23.39
66385;BME280;53426;55.872;37.462;2023-03-18T14:38:19;100846.91;;;4.69;23.04
66385;BME280;53426;55.872;37.462;2023-03-18T14:40:48;100858.16;;;4.71;23.29
66385;BME280;53426;55.872;37.462;2023-03-18T14:45:58;100835.16;;;4.55;23.17
66385;BME280;53426;55.872;37.462;2023-03-18T14:48:31;100842.53;;;4.46;22.81
66385;BME280;53426;55.872;37.462;2023-03-18T14:51:02;100839.91;;;4.46;22.55
66385;BME280;53426;55.872;37.462;2023-03-18T14:56:03;100843.56;;;4.42;22.42
66385;BME280;53426;55.872;37.462;2023-03-18T14:58:29;100851.09;;;4.28;22.85
66385;BME280;53426;55.872;37.462;2023-03-18T15:01:07;100850.34;;;4.24;22.90
66385;BME280;53426;55.872;37.462;2023-03-18T15:03:38;100848.84;;;4.17;22.93
66385;BME280;53426;55.872;37.462;2023-03-18T15:06:06;100842.94;;;4.12;22.93
66385;BME280;53426;55.872;37.462;2023-03-18T15:08:36;100834.47;;;4.04;22.74
66385;BME280;53426;55.872;37.462;2023-03-18T15:11:03;100839.72;;;4.04;23.36
66385;BME280;53426;55.872;37.462;2023-03-18T15:13:40;100844.06;;;4.05;22.98
66385;BME280;53426;55.872;37.462;2023-03-18T15:16:10;100845.91;;;4.03;23.19
66385;BME280;53426;55.872;37.462;2023-03-18T15:18:37;100843.31;;;4.01;23.66
66385;BME280;53426;55.872;37.462;2023-03-18T15:21:14;100838.19;;;3.98;23.35
66385;BME280;53426;55.872;37.462;2023-03-18T15:23:53;100840.03;;;3.96;23.21
66385;BME280;53426;55.872;37.462;2023-03-18T15:26:24;100835.81;;;3.92;23.86
66385;BME280;53426;55.872;37.462;2023-03-18T15:28:59;100827.34;;;3.84;23.82
66385;BME280;53426;55.872;37.462;2023-03-18T15:31:31;100833.56;;;3.82;22.81
66385;BME280;53426;55.872;37.462;2023-03-18T15:34:28;100830.19;;;3.78;23.49
66385;BME280;53426;55.872;37.462;2023-03-18T15:36:57;100828.69;;;3.71;23.91
66385;BME280;53426;55.872;37.462;2023-03-18T15:41:57;100829.41;;;3.51;23.18
66385;BME280;53426;55.872;37.462;2023-03-18T15:44:28;100832.88;;;3.52;23.31
66385;BME280;53426;55.872;37.462;2023-03-18T15:47:02;100835.53;;;3.50;22.43
66385;BME280;53426;55.872;37.462;2023-03-18T15:49:30;100837.38;;;3.48;22.29
66385;BME280;53426;55.872;37.462;2023-03-18T15:51:59;100827.84;;;3.46;23.08
66385;BME280;53426;55.872;37.462;2023-03-18T15:54:48;100818.63;;;3.34;22.96
66385;BME280;53426;55.872;37.462;2023-03-18T15:57:24;100831.56;;;3.38;23.09
66385;BME280;53426;55.872;37.462;2023-03-18T15:59:52;100834.47;;;3.31;22.86
66385;BME280;53426;55.872;37.462;2023-03-18T16:02:19;100831.03;;;3.29;23.05
66385;BME280;53426;55.872;37.462;2023-03-18T16:04:47;100828.63;;;3.23;23.33
66385;BME280;53426;55.872;37.462;2023-03-18T16:07:18;100820.13;;;3.16;22.86
66385;BME280;53426;55.872;37.462;2023-03-18T16:09:46;100834.88;;;3.19;22.89
66385;BME280;53426;55.872;37.462;2023-03-18T16:12:18;100815.16;;;3.09;23.37
66385;BME280;53426;55.872;37.462;2023-03-18T16:14:47;100817.03;;;3.05;23.28
66385;BME280;53426;55.872;37.462;2023-03-18T16:17:15;100822.28;;;3.04;22.82
66385;BME280;53426;55.872;37.462;2023-03-18T16:19:42;100826.44;;;3.11;22.95
66385;BME280;53426;55.872;37.462;2023-03-18T16:22:10;100822.28;;;3.04;22.81
66385;BME280;53426;55.872;37.462;2023-03-18T16:24:37;100827.47;;;3.05;23.05
66385;BME280;53426;55.872;37.462;2023-03-18T16:27:04;100831.91;;;3.03;23.48
66385;BME280;53426;55.872;37.462;2023-03-18T16:29:33;100832.91;;;2.99;23.69
66385;BME280;53426;55.872;37.462;2023-03-18T16:32:01;100836.47;;;2.97;23.11
66385;BME280;53426;55.872;37.462;2023-03-18T16:34:27;100827.84;;;2.94;23.24
66385;BME280;53426;55.872;37.462;2023-03-18T16:36:53;100840.13;;;2.91;23.28